createdAt,value
2019-06-20T00:02:10.650Z,100.00
2019-06-20T00:04:39.293Z,100.00
2019-06-20T00:07:07.972Z,100.00
2019-06-20T00:09:36.612Z,100.00
2019-06-20T00:12:05.324Z,100.00
2019-06-20T00:14:33.831Z,100.00
2019-06-20T00:17:02.330Z,100.00
2019-06-20T00:19:30.924Z,100.00
2019-06-20T00:21:59.486Z,100.00
2019-06-20T00:24:28.123Z,100.00
2019-06-20T00:26:56.768Z,100.00
2019-06-20T00:29:25.334Z,100.00
2019-06-20T00:31:53.870Z,100.00
2019-06-20T00:34:22.517Z,100.00
2019-06-20T00:36:51.470Z,100.00
2019-06-20T00:39:20.095Z,100.00
2019-06-20T00:41:48.660Z,100.00
2019-06-20T00:44:17.267Z,100.00
2019-06-20T00:46:45.836Z,100.00
2019-06-20T00:49:14.384Z,100.00
2019-06-20T00:51:43.023Z,100.00
2019-06-20T00:54:11.563Z,100.00
2019-06-20T00:56:40.173Z,100.00
2019-06-20T00:59:08.741Z,100.00
2019-06-20T01:01:37.364Z,100.00
2019-06-20T01:04:05.999Z,100.00
2019-06-20T01:06:34.582Z,100.00
2019-06-20T01:09:03.074Z,100.00
2019-06-20T01:11:31.687Z,100.00
2019-06-20T01:14:00.174Z,100.00
2019-06-20T01:16:28.789Z,100.00
2019-06-20T01:18:57.435Z,100.00
2019-06-20T01:21:26.006Z,100.00
2019-06-20T01:23:54.612Z,100.00
2019-06-20T01:26:23.240Z,100.00
2019-06-20T01:28:51.880Z,100.00
2019-06-20T01:31:20.515Z,100.00
2019-06-20T01:33:49.085Z,100.00
2019-06-20T01:36:17.658Z,100.00
2019-06-20T01:38:46.258Z,100.00
2019-06-20T01:41:14.826Z,100.00
2019-06-20T01:43:50.403Z,100.00
2019-06-20T01:46:13.855Z,100.00
2019-06-20T01:48:42.486Z,100.00
2019-06-20T01:51:11.256Z,100.00
2019-06-20T01:53:39.842Z,100.00
2019-06-20T01:56:08.508Z,100.00
2019-06-20T01:58:37.142Z,100.00
2019-06-20T02:01:05.926Z,100.00
2019-06-20T02:03:34.568Z,100.00
2019-06-20T02:06:03.262Z,100.00
2019-06-20T02:08:31.904Z,100.00
2019-06-20T02:11:00.551Z,100.00
2019-06-20T02:13:29.199Z,100.00
2019-06-20T02:15:57.936Z,100.00
2019-06-20T02:18:26.616Z,100.00
2019-06-20T02:20:57.650Z,100.00
2019-06-20T02:23:26.320Z,100.00
2019-06-20T02:25:55.068Z,100.00
2019-06-20T02:28:24.165Z,100.00
2019-06-20T02:30:52.821Z,100.00
2019-06-20T02:33:21.492Z,100.00
2019-06-20T02:35:50.168Z,100.00
2019-06-20T02:38:18.802Z,100.00
2019-06-20T02:40:47.487Z,100.00
2019-06-20T02:43:16.183Z,100.00
2019-06-20T02:45:44.818Z,100.00
2019-06-20T02:48:13.468Z,100.00
2019-06-20T02:50:42.207Z,100.00
2019-06-20T02:53:10.811Z,100.00
2019-06-20T02:55:39.436Z,100.00
2019-06-20T02:58:08.084Z,100.00
2019-06-20T03:00:57.142Z,100.00
2019-06-20T03:03:26.381Z,100.00
2019-06-20T03:05:55.013Z,100.00
2019-06-20T03:08:23.782Z,100.00
2019-06-20T03:10:52.425Z,100.00
2019-06-20T03:13:21.100Z,100.00
2019-06-20T03:15:50.172Z,100.00
2019-06-20T03:18:18.816Z,100.00
2019-06-20T03:20:47.527Z,100.00
2019-06-20T03:23:16.195Z,100.00
2019-06-20T03:25:44.773Z,100.00
2019-06-20T03:28:13.434Z,100.00
2019-06-20T03:30:41.934Z,100.00
2019-06-20T03:33:10.533Z,100.00
2019-06-20T03:35:39.170Z,100.00
2019-06-20T03:38:07.798Z,100.00
2019-06-20T03:40:36.449Z,100.00
2019-06-20T03:43:05.091Z,100.00
2019-06-20T03:45:34.682Z,100.00
2019-06-20T03:48:03.324Z,100.00
2019-06-20T03:50:32.066Z,100.00
2019-06-20T03:53:03.341Z,100.00
2019-06-20T03:55:33.385Z,100.00
2019-06-20T03:58:02.570Z,100.00
2019-06-20T04:00:33.582Z,100.00
2019-06-20T04:03:02.532Z,100.00
2019-06-20T04:05:31.186Z,100.00
2019-06-20T04:07:59.699Z,100.00
2019-06-20T04:10:28.379Z,100.00
2019-06-20T04:12:56.937Z,100.00
2019-06-20T04:15:25.681Z,100.00
2019-06-20T04:17:54.367Z,100.00
2019-06-20T04:20:23.001Z,100.00
2019-06-20T04:22:51.564Z,100.00
2019-06-20T04:25:20.110Z,100.00
2019-06-20T04:27:48.800Z,100.00
2019-06-20T04:30:17.542Z,100.00
2019-06-20T04:32:46.177Z,100.00
2019-06-20T04:35:14.836Z,100.00
2019-06-20T04:37:43.333Z,100.00
2019-06-20T04:40:12.633Z,100.00
2019-06-20T04:42:41.193Z,100.00
2019-06-20T04:45:35.049Z,100.00
2019-06-20T04:47:57.308Z,100.00
2019-06-20T04:50:25.907Z,100.00
2019-06-20T04:52:54.407Z,100.00
2019-06-20T04:55:23.017Z,100.00
2019-06-20T04:57:51.596Z,100.00
2019-06-20T05:00:20.229Z,100.00
2019-06-20T05:02:48.812Z,100.00
2019-06-20T05:05:17.482Z,100.00
2019-06-20T05:07:46.261Z,100.00
2019-06-20T05:10:15.349Z,100.00
2019-06-20T05:12:46.530Z,100.00
2019-06-20T05:15:15.542Z,100.00
2019-06-20T05:17:47.250Z,100.00
2019-06-20T05:20:16.256Z,100.00
2019-06-20T05:22:45.125Z,100.00
2019-06-20T05:25:14.553Z,100.00
2019-06-20T05:27:44.900Z,100.00
2019-06-20T05:30:14.062Z,100.00
2019-06-20T05:32:42.881Z,100.00
2019-06-20T05:35:11.609Z,100.00
2019-06-20T05:37:40.184Z,100.00
2019-06-20T05:40:10.521Z,100.00
2019-06-20T05:42:43.655Z,100.00
2019-06-20T05:45:15.544Z,100.00
2019-06-20T05:47:44.349Z,100.00
2019-06-20T05:50:13.280Z,100.00
2019-06-20T05:52:46.299Z,100.00
2019-06-20T05:55:16.679Z,100.00
2019-06-20T05:57:45.388Z,100.00
2019-06-20T06:03:00.954Z,100.00
2019-06-20T06:05:29.801Z,100.00
2019-06-20T06:08:00.162Z,100.00
2019-06-20T06:10:29.007Z,100.00
2019-06-20T06:12:58.628Z,100.00
2019-06-20T06:15:28.953Z,100.00
2019-06-20T06:17:57.744Z,100.00
2019-06-20T06:20:26.727Z,100.00
2019-06-20T06:22:56.993Z,100.00
2019-06-20T06:25:25.812Z,100.00
2019-06-20T06:27:56.158Z,100.00
2019-06-20T06:30:25.353Z,98.02
2019-06-20T06:32:55.846Z,95.87
2019-06-20T06:35:27.657Z,98.29
2019-06-20T06:37:56.651Z,97.52
2019-06-20T06:40:30.010Z,93.60
2019-06-20T06:43:01.747Z,86.71
2019-06-20T06:45:30.555Z,85.74
2019-06-20T06:48:02.002Z,78.21
2019-06-20T06:50:30.838Z,78.84
2019-06-20T06:53:02.609Z,81.98
2019-06-20T06:55:31.539Z,78.60
2019-06-20T06:58:00.386Z,77.42
2019-06-20T07:00:32.283Z,77.30
2019-06-20T07:03:01.171Z,78.99
2019-06-20T07:05:30.136Z,77.93
2019-06-20T07:07:58.792Z,74.99
2019-06-20T07:10:27.980Z,75.89
2019-06-20T07:12:56.636Z,75.92
2019-06-20T07:15:25.379Z,76.39
2019-06-20T07:17:54.013Z,71.67
2019-06-20T07:20:22.925Z,72.47
2019-06-20T07:22:51.715Z,70.92
2019-06-20T07:25:20.514Z,67.83
2019-06-20T07:27:50.794Z,71.69
2019-06-20T07:30:21.410Z,71.08
2019-06-20T07:32:50.334Z,69.81
2019-06-20T07:35:19.687Z,67.67
2019-06-20T07:37:48.573Z,72.18
2019-06-20T07:40:17.358Z,71.88
2019-06-20T07:42:46.117Z,72.90
2019-06-20T07:45:15.353Z,75.04
2019-06-20T07:47:46.483Z,70.00
2019-06-20T07:50:16.899Z,65.84
2019-06-20T07:53:00.829Z,62.49
2019-06-20T07:55:16.413Z,62.28
2019-06-20T07:57:48.067Z,69.29
2019-06-20T08:00:16.998Z,60.53
2019-06-20T08:02:45.801Z,61.67
2019-06-20T08:05:15.102Z,63.32
2019-06-20T08:07:43.976Z,54.88
2019-06-20T08:10:17.843Z,53.45
2019-06-20T08:12:50.790Z,45.31
2019-06-20T08:15:20.019Z,43.49
2019-06-20T08:17:52.127Z,40.61
2019-06-20T08:20:24.310Z,41.60
2019-06-20T08:22:53.172Z,40.40
2019-06-20T08:25:22.520Z,36.01
2019-06-20T08:27:54.049Z,35.70
2019-06-20T08:30:31.870Z,37.50
2019-06-20T08:33:07.575Z,35.97
2019-06-20T08:35:33.339Z,31.87
2019-06-20T08:38:03.606Z,33.45
2019-06-20T08:40:36.471Z,34.08
2019-06-20T08:43:06.326Z,31.90
2019-06-20T08:45:42.356Z,33.31
2019-06-20T08:48:11.231Z,37.15
2019-06-20T08:50:43.417Z,30.74
2019-06-20T08:53:12.178Z,29.56
2019-06-20T08:55:41.024Z,31.13
2019-06-20T08:58:09.870Z,30.43
2019-06-20T09:00:40.355Z,30.70
2019-06-20T09:03:09.133Z,29.95
2019-06-20T09:05:37.765Z,29.14
2019-06-20T09:08:11.123Z,27.69
2019-06-20T09:10:39.569Z,27.22
2019-06-20T09:13:08.529Z,27.18
2019-06-20T09:15:40.538Z,26.31
2019-06-20T09:18:09.462Z,25.82
2019-06-20T09:20:38.200Z,28.09
2019-06-20T09:23:06.828Z,28.34
2019-06-20T09:25:35.601Z,26.12
2019-06-20T09:28:05.381Z,26.86
2019-06-20T09:30:34.418Z,28.03
2019-06-20T09:33:04.217Z,24.62
2019-06-20T09:35:36.199Z,24.33
2019-06-20T09:38:05.167Z,26.75
2019-06-20T09:40:33.959Z,25.14
2019-06-20T09:43:02.993Z,24.23
2019-06-20T09:45:31.748Z,24.35
2019-06-20T09:48:00.593Z,24.68
2019-06-20T09:50:30.981Z,26.20
2019-06-20T09:52:59.656Z,24.08
2019-06-20T09:55:28.972Z,23.73
2019-06-20T09:57:58.259Z,24.29
2019-06-20T10:00:28.406Z,25.39
2019-06-20T10:02:57.812Z,25.20
2019-06-20T10:05:29.955Z,23.49
2019-06-20T10:08:01.812Z,23.89
2019-06-20T10:10:32.551Z,24.20
2019-06-20T10:13:01.346Z,24.02
2019-06-20T10:15:35.912Z,24.97
2019-06-20T10:18:04.804Z,22.83
2019-06-20T10:20:33.544Z,21.79
2019-06-20T10:23:03.926Z,20.77
2019-06-20T10:25:35.559Z,21.86
2019-06-20T10:28:05.746Z,21.98
2019-06-20T10:30:34.582Z,22.57
2019-06-20T10:33:03.376Z,21.48
2019-06-20T10:35:32.135Z,23.52
2019-06-20T10:38:00.967Z,21.54
2019-06-20T10:40:29.878Z,22.10
2019-06-20T10:43:01.671Z,21.46
2019-06-20T10:45:30.789Z,23.40
2019-06-20T10:47:59.530Z,24.21
2019-06-20T10:50:28.465Z,23.45
2019-06-20T10:52:57.263Z,23.78
2019-06-20T10:55:26.152Z,23.22
2019-06-20T10:57:54.847Z,24.04
2019-06-20T11:00:31.437Z,22.84
2019-06-20T11:02:59.124Z,22.63
2019-06-20T11:05:27.868Z,21.92
2019-06-20T11:07:56.647Z,21.18
2019-06-20T11:10:26.220Z,19.06
2019-06-20T11:12:56.296Z,18.17
2019-06-20T11:15:25.727Z,18.96
2019-06-20T11:17:56.942Z,20.03
2019-06-20T11:20:26.141Z,19.33
2019-06-20T11:22:54.900Z,18.85
2019-06-20T11:25:23.795Z,18.37
2019-06-20T11:27:52.573Z,18.14
2019-06-20T11:30:26.687Z,18.37
2019-06-20T11:32:55.500Z,17.79
2019-06-20T11:35:26.922Z,20.77
2019-06-20T11:37:58.215Z,18.13
2019-06-20T11:40:27.028Z,18.47
2019-06-20T11:42:55.814Z,19.97
2019-06-20T11:45:27.825Z,18.08
2019-06-20T11:47:56.578Z,18.59
2019-06-20T11:50:25.383Z,19.51
2019-06-20T11:52:55.982Z,20.26
2019-06-20T11:55:25.098Z,20.33
2019-06-20T11:57:54.018Z,21.74
2019-06-20T12:00:23.125Z,18.67
2019-06-20T12:02:54.674Z,21.30
2019-06-20T12:05:23.537Z,20.77
2019-06-20T12:07:52.240Z,23.81
2019-06-20T12:10:22.681Z,20.50
2019-06-20T12:12:51.380Z,22.73
2019-06-20T12:15:22.958Z,23.01
2019-06-20T12:17:51.984Z,24.29
2019-06-20T12:20:21.545Z,24.89
2019-06-20T12:22:50.759Z,23.02
2019-06-20T12:25:20.629Z,24.84
2019-06-20T12:27:53.681Z,20.34
2019-06-20T12:30:25.707Z,23.17
2019-06-20T12:32:56.424Z,23.01
2019-06-20T12:35:35.727Z,22.70
2019-06-20T12:38:04.854Z,24.50
2019-06-20T12:40:33.507Z,20.84
2019-06-20T12:43:02.283Z,19.51
2019-06-20T12:45:30.944Z,18.76
2019-06-20T12:47:59.669Z,18.46
2019-06-20T12:50:28.500Z,19.48
2019-06-20T12:52:57.242Z,18.58
2019-06-20T12:55:26.039Z,17.24
2019-06-20T12:57:54.735Z,19.67
2019-06-20T13:00:25.341Z,17.23
2019-06-20T13:02:54.017Z,17.70
2019-06-20T13:05:24.419Z,18.77
2019-06-20T13:07:53.156Z,19.08
2019-06-20T13:10:22.249Z,18.69
2019-06-20T13:12:51.606Z,18.75
2019-06-20T13:15:21.067Z,18.48
2019-06-20T13:17:49.753Z,16.43
2019-06-20T13:20:19.572Z,19.18
2019-06-20T13:22:49.553Z,18.08
2019-06-20T13:25:18.330Z,19.01
2019-06-20T13:27:47.850Z,18.46
2019-06-20T13:30:17.336Z,19.41
2019-06-20T13:32:58.316Z,18.78
2019-06-20T13:35:27.326Z,18.86
2019-06-20T13:37:56.814Z,21.03
2019-06-20T13:40:25.473Z,18.14
2019-06-20T13:42:54.845Z,16.83
2019-06-20T13:45:25.698Z,17.30
2019-06-20T13:47:54.521Z,14.80
2019-06-20T13:50:25.323Z,15.18
2019-06-20T13:52:54.079Z,15.05
2019-06-20T13:55:22.718Z,16.68
2019-06-20T14:29:36.415Z,21.84
2019-06-20T14:32:05.146Z,18.99
2019-06-20T14:34:33.784Z,20.84
2019-06-20T14:37:02.346Z,18.19
2019-06-20T14:39:34.078Z,18.92
2019-06-20T14:42:01.349Z,20.42
2019-06-20T14:44:29.915Z,22.97
2019-06-20T14:46:59.465Z,24.39
2019-06-20T14:49:28.252Z,24.62
2019-06-20T14:51:56.896Z,25.99
2019-06-20T14:54:25.501Z,32.42
2019-06-20T14:56:54.071Z,40.01
2019-06-20T14:59:22.697Z,45.04
2019-06-20T15:01:52.521Z,52.51
2019-06-20T15:04:21.351Z,58.19
2019-06-20T15:06:50.390Z,62.67
2019-06-20T15:09:19.190Z,67.15
2019-06-20T15:11:48.230Z,68.69
2019-06-20T15:14:18.001Z,69.85
2019-06-20T15:16:47.988Z,71.26
2019-06-20T15:19:16.818Z,75.09
2019-06-20T15:21:46.865Z,81.29
2019-06-20T15:24:15.691Z,84.98
2019-06-20T15:26:47.125Z,87.20
2019-06-20T15:29:14.666Z,89.81
2019-06-20T15:31:43.871Z,89.21
2019-06-20T15:34:12.659Z,87.26
2019-06-20T15:36:41.145Z,85.12
2019-06-20T15:39:09.774Z,80.78
2019-06-20T15:41:38.389Z,84.71
2019-06-20T15:44:07.043Z,88.61
2019-06-20T15:46:35.654Z,92.47
2019-06-20T15:49:15.707Z,96.52
2019-06-20T15:51:34.723Z,94.32
2019-06-20T15:54:03.349Z,93.79
2019-06-20T15:56:32.037Z,94.02
2019-06-20T15:59:00.553Z,93.97
2019-06-20T16:01:29.120Z,94.28
2019-06-20T16:03:57.694Z,95.18
2019-06-20T16:06:26.359Z,90.78
2019-06-20T16:08:54.845Z,89.83
2019-06-20T16:11:23.515Z,100.00
2019-06-20T16:13:52.083Z,100.00
2019-06-20T16:16:20.825Z,100.00
2019-06-20T16:18:49.405Z,100.00
2019-06-20T16:21:18.220Z,100.00
2019-06-20T16:23:46.846Z,100.00
2019-06-20T16:26:15.444Z,100.00
2019-06-20T16:28:44.280Z,100.00
2019-06-20T16:31:25.803Z,100.00
2019-06-20T16:33:43.223Z,100.00
2019-06-20T16:36:13.118Z,100.00
2019-06-20T16:38:41.873Z,100.00
2019-06-20T16:41:10.463Z,100.00
2019-06-20T16:43:39.057Z,100.00
2019-06-20T16:46:07.692Z,100.00
2019-06-20T16:48:36.307Z,100.00
2019-06-20T16:51:04.979Z,100.00
2019-06-20T16:53:33.690Z,100.00
2019-06-20T16:56:02.406Z,100.00
2019-06-20T16:58:31.077Z,100.00
2019-06-20T17:00:59.719Z,100.00
2019-06-20T17:03:41.101Z,100.00
2019-06-20T17:05:58.753Z,100.00
2019-06-20T17:08:27.360Z,100.00
2019-06-20T17:10:55.994Z,100.00
2019-06-20T17:13:24.669Z,100.00
2019-06-20T17:15:56.219Z,100.00
2019-06-20T17:18:24.941Z,100.00
2019-06-20T17:20:53.572Z,100.00
2019-06-20T17:23:25.112Z,100.00
2019-06-20T17:25:53.678Z,100.00
2019-06-20T17:28:22.361Z,100.00
2019-06-20T17:30:50.986Z,100.00
2019-06-20T17:33:19.652Z,100.00
2019-06-20T17:35:48.338Z,100.00
2019-06-20T17:38:16.887Z,100.00
2019-06-20T17:40:45.512Z,100.00
2019-06-20T17:43:14.110Z,100.00
2019-06-20T17:45:42.608Z,100.00
2019-06-20T17:48:11.266Z,100.00
2019-06-20T17:50:39.900Z,100.00
2019-06-20T17:53:08.576Z,100.00
2019-06-20T17:55:37.145Z,100.00
2019-06-20T17:58:05.921Z,100.00
2019-06-20T18:00:34.812Z,100.00
2019-06-20T18:03:03.445Z,100.00
2019-06-20T18:05:32.123Z,100.00
2019-06-20T18:08:14.137Z,100.00
2019-06-20T18:10:31.263Z,100.00
2019-06-20T18:12:59.833Z,100.00
2019-06-20T18:15:28.474Z,100.00
2019-06-20T18:17:57.072Z,100.00
2019-06-20T18:20:25.812Z,100.00
2019-06-20T18:22:54.410Z,100.00
2019-06-20T18:25:23.053Z,100.00
2019-06-20T18:27:51.683Z,100.00
2019-06-20T18:30:23.254Z,100.00
2019-06-20T18:32:51.912Z,100.00
2019-06-20T18:35:20.585Z,100.00
2019-06-20T18:37:51.253Z,100.00
2019-06-20T18:40:20.057Z,100.00
2019-06-20T18:42:48.621Z,100.00
2019-06-20T18:45:17.337Z,100.00
2019-06-20T18:47:46.035Z,100.00
2019-06-20T18:50:14.788Z,100.00
2019-06-20T18:52:52.185Z,100.00
2019-06-20T18:55:13.849Z,100.00
2019-06-20T18:57:42.555Z,100.00
2019-06-20T19:00:13.072Z,100.00
2019-06-20T19:02:41.844Z,100.00
2019-06-20T19:05:11.491Z,100.00
2019-06-20T19:07:40.205Z,100.00
2019-06-20T19:10:10.145Z,100.00
2019-06-20T19:12:38.792Z,100.00
2019-06-20T19:15:08.350Z,100.00
2019-06-20T19:17:37.002Z,100.00
2019-06-20T19:20:06.986Z,100.00
2019-06-20T19:22:35.671Z,100.00
2019-06-20T19:25:07.403Z,100.00
2019-06-20T19:27:45.720Z,100.00
2019-06-20T19:30:10.480Z,100.00
2019-06-20T19:32:39.196Z,100.00
2019-06-20T19:35:10.299Z,100.00
2019-06-20T19:37:39.462Z,100.00
2019-06-20T19:40:09.561Z,100.00
2019-06-20T19:42:38.308Z,100.00
2019-06-20T19:45:13.440Z,100.00
2019-06-20T19:47:42.522Z,100.00
2019-06-20T19:50:11.769Z,100.00
2019-06-20T19:52:46.984Z,100.00
2019-06-20T19:55:16.922Z,100.00
2019-06-20T19:57:45.595Z,100.00
2019-06-20T20:00:14.407Z,100.00
2019-06-20T20:02:43.090Z,100.00
2019-06-20T20:05:19.138Z,100.00
2019-06-20T20:07:42.544Z,100.00
2019-06-20T20:10:11.476Z,100.00
2019-06-20T20:12:40.116Z,100.00
2019-06-20T20:15:11.982Z,100.00
2019-06-20T20:17:40.618Z,100.00
2019-06-20T20:20:09.763Z,100.00
2019-06-20T20:22:38.403Z,100.00
2019-06-20T20:25:08.344Z,100.00
2019-06-20T20:27:39.634Z,100.00
2019-06-20T20:30:11.645Z,100.00
2019-06-20T20:32:40.407Z,100.00
2019-06-20T20:35:09.384Z,100.00
2019-06-20T20:37:37.981Z,100.00
2019-06-20T20:40:09.358Z,100.00
2019-06-20T20:42:38.075Z,100.00
2019-06-20T20:45:10.242Z,100.00
2019-06-20T20:47:38.856Z,100.00
2019-06-20T20:50:09.019Z,100.00
2019-06-20T20:52:37.655Z,100.00
2019-06-20T20:55:08.842Z,100.00
2019-06-20T20:57:37.517Z,100.00
2019-06-20T21:00:25.302Z,100.00
2019-06-20T21:02:54.335Z,100.00
2019-06-20T21:05:22.979Z,100.00
2019-06-20T21:07:51.663Z,100.00
2019-06-20T21:10:20.599Z,100.00
2019-06-20T21:12:49.282Z,100.00
2019-06-20T21:15:18.007Z,100.00
2019-06-20T21:17:46.623Z,100.00
2019-06-20T21:20:16.951Z,100.00
2019-06-20T21:22:45.643Z,100.00
2019-06-20T21:25:14.798Z,100.00
2019-06-20T21:27:43.447Z,100.00
2019-06-20T21:30:12.840Z,100.00
2019-06-20T21:32:41.501Z,100.00
2019-06-20T21:35:10.495Z,100.00
2019-06-20T21:37:39.055Z,100.00
2019-06-20T21:40:09.003Z,100.00
2019-06-20T21:42:37.566Z,100.00
2019-06-20T21:45:08.380Z,100.00
2019-06-20T21:47:37.022Z,100.00
2019-06-20T21:50:09.152Z,100.00
2019-06-20T21:52:38.217Z,100.00
2019-06-20T21:55:07.470Z,100.00
2019-06-20T21:57:36.133Z,100.00
2019-06-20T22:00:21.186Z,100.00
2019-06-20T22:02:49.870Z,100.00
2019-06-20T22:05:18.514Z,100.00
2019-06-20T22:07:47.139Z,100.00
2019-06-20T22:10:16.149Z,100.00
2019-06-20T22:12:44.756Z,100.00
2019-06-20T22:15:13.739Z,100.00
2019-06-20T22:17:42.377Z,100.00
2019-06-20T22:20:12.270Z,100.00
2019-06-20T22:22:40.839Z,100.00
2019-06-20T22:25:09.786Z,100.00
2019-06-20T22:27:38.467Z,100.00
2019-06-20T22:30:09.720Z,100.00
2019-06-20T22:32:38.247Z,100.00
2019-06-20T22:35:08.844Z,100.00
2019-06-20T22:37:37.525Z,100.00
2019-06-20T22:40:08.653Z,100.00
2019-06-20T22:42:37.328Z,100.00
2019-06-20T22:45:07.463Z,100.00
2019-06-20T22:47:36.149Z,100.00
2019-06-20T22:50:07.691Z,100.00
2019-06-20T22:52:36.255Z,100.00
2019-06-20T22:55:06.122Z,100.00
2019-06-20T22:57:34.683Z,100.00
2019-06-20T23:00:04.812Z,100.00
2019-06-20T23:02:33.455Z,100.00
2019-06-20T23:05:02.052Z,100.00
2019-06-20T23:07:30.717Z,100.00
2019-06-20T23:10:09.762Z,100.00
2019-06-20T23:12:29.634Z,100.00
2019-06-20T23:14:58.230Z,100.00
2019-06-20T23:17:26.927Z,100.00
2019-06-20T23:19:55.500Z,100.00
2019-06-20T23:22:24.122Z,100.00
2019-06-20T23:24:52.792Z,100.00
2019-06-20T23:27:21.358Z,100.00
2019-06-20T23:29:50.047Z,100.00
2019-06-20T23:32:18.670Z,100.00
2019-06-20T23:34:47.291Z,100.00
2019-06-20T23:37:16.036Z,100.00
2019-06-20T23:39:44.633Z,100.00
2019-06-20T23:42:13.329Z,100.00
2019-06-20T23:44:41.982Z,100.00
2019-06-20T23:47:10.661Z,100.00
2019-06-20T23:49:39.349Z,100.00
2019-06-20T23:52:15.659Z,100.00
2019-06-20T23:54:44.364Z,100.00
2019-06-20T23:57:12.904Z,100.00
2019-06-20T23:59:41.438Z,100.00
